createdAt,value
2022-11-15T00:00:35.257Z,97438.81
2022-11-15T00:03:02.777Z,97433.69
2022-11-15T00:05:29.596Z,97429.97
2022-11-15T00:07:56.537Z,97431.03
2022-11-15T00:10:22.662Z,97438.03
2022-11-15T00:12:51.802Z,97435.78
2022-11-15T00:15:19.063Z,97445.66
2022-11-15T00:17:45.608Z,97442.78
2022-11-15T00:20:14.877Z,97443.63
2022-11-15T00:22:41.137Z,97429.41
2022-11-15T00:25:09.421Z,97437.31
2022-11-15T00:27:36.101Z,97437.88
2022-11-15T00:30:04.977Z,97431.13
2022-11-15T00:32:35.348Z,97427.75
2022-11-15T00:35:01.823Z,97425.56
2022-11-15T00:37:28.375Z,97428.94
2022-11-15T00:39:54.876Z,97424.13
2022-11-15T00:42:21.415Z,97420.44
2022-11-15T00:44:47.818Z,97424.13
2022-11-15T00:47:17.112Z,97422.22
2022-11-15T00:49:43.776Z,97414.00
2022-11-15T00:52:10.248Z,97412.16
2022-11-15T00:54:36.922Z,97414.09
2022-11-15T00:57:03.279Z,97409.53
2022-11-15T00:59:30.004Z,97410.31
2022-11-15T01:01:57.533Z,97403.44
2022-11-15T01:04:27.796Z,97398.69
2022-11-15T01:06:54.661Z,97396.22
2022-11-15T01:09:21.199Z,97391.81
2022-11-15T01:11:48.833Z,97391.31
2022-11-15T01:14:15.322Z,97387.34
2022-11-15T01:16:41.805Z,97384.44
2022-11-15T01:19:08.741Z,97382.50
2022-11-15T01:21:37.873Z,97375.53
2022-11-15T01:24:05.324Z,97379.75
2022-11-15T01:26:31.510Z,97373.44
2022-11-15T01:28:57.801Z,97367.38
2022-11-15T01:31:25.355Z,97366.13
2022-11-15T01:33:52.183Z,97359.50
2022-11-15T01:36:22.769Z,97365.25
2022-11-15T01:38:57.211Z,97358.94
2022-11-15T01:41:26.203Z,97370.38
2022-11-15T01:43:55.886Z,97361.84
2022-11-15T01:46:30.987Z,97362.34
2022-11-15T01:49:00.660Z,97354.84
2022-11-15T01:51:30.674Z,97354.53
2022-11-15T01:54:05.990Z,97355.63
2022-11-15T01:56:36.339Z,97358.56
2022-11-15T01:59:06.794Z,97346.81
2022-11-15T02:01:36.372Z,97348.47
2022-11-15T02:04:05.038Z,97337.97
2022-11-15T02:06:31.299Z,97342.91
2022-11-15T02:09:01.296Z,97339.97
2022-11-15T02:11:28.219Z,97333.16
2022-11-15T02:13:55.899Z,97338.78
2022-11-15T02:16:32.710Z,97326.84
2022-11-15T02:19:06.638Z,97329.56
2022-11-15T02:21:47.977Z,97314.13
2022-11-15T02:24:53.437Z,97312.88
2022-11-15T02:27:45.944Z,97315.53
2022-11-15T02:30:25.214Z,97308.69
2022-11-15T02:32:57.008Z,97310.81
2022-11-15T02:35:32.530Z,97300.34
2022-11-15T02:38:02.326Z,97296.06
2022-11-15T02:40:38.402Z,97289.50
2022-11-15T02:43:24.218Z,97285.97
2022-11-15T02:45:57.712Z,97290.47
2022-11-15T02:48:26.395Z,97284.22
2022-11-15T02:50:53.060Z,97283.00
2022-11-15T02:53:19.903Z,97283.78
2022-11-15T02:55:49.905Z,97277.09
2022-11-15T02:58:39.253Z,97270.84
2022-11-15T03:01:16.441Z,97272.97
2022-11-15T03:03:56.615Z,97275.44
2022-11-15T03:06:31.966Z,97274.78
2022-11-15T03:09:06.952Z,97269.97
2022-11-15T03:11:36.346Z,97284.34
2022-11-15T03:14:10.441Z,97293.81
2022-11-15T03:16:45.919Z,97290.41
2022-11-15T03:19:17.856Z,97290.50
2022-11-15T03:21:45.038Z,97287.69
2022-11-15T03:24:13.632Z,97284.16
2022-11-15T03:26:43.471Z,97270.63
2022-11-15T03:29:16.421Z,97275.09
2022-11-15T03:31:51.865Z,97268.38
2022-11-15T03:34:26.598Z,97257.19
2022-11-15T03:36:56.851Z,97259.34
2022-11-15T03:39:24.882Z,97256.94
2022-11-15T03:41:54.869Z,97250.00
2022-11-15T03:44:34.145Z,97246.25
2022-11-15T03:47:10.328Z,97242.50
2022-11-15T03:49:39.403Z,97239.97
2022-11-15T03:52:08.018Z,97227.63
2022-11-15T03:54:35.733Z,97220.81
2022-11-15T03:57:02.017Z,97220.66
2022-11-15T03:59:28.262Z,97224.00
2022-11-15T04:02:04.641Z,97214.69
2022-11-15T04:04:30.850Z,97217.34
2022-11-15T04:06:57.648Z,97219.03
2022-11-15T04:09:23.836Z,97224.75
2022-11-15T04:11:50.405Z,97230.13
2022-11-15T04:14:16.866Z,97231.88
2022-11-15T04:16:44.131Z,97215.44
2022-11-15T04:19:25.996Z,97218.56
2022-11-15T04:22:06.430Z,97222.56
2022-11-15T04:24:32.611Z,97217.22
2022-11-15T04:26:59.308Z,97217.81
2022-11-15T04:29:38.115Z,97219.56
2022-11-15T04:32:04.114Z,97219.66
2022-11-15T04:34:34.602Z,97221.09
2022-11-15T04:37:17.181Z,97213.16
2022-11-15T04:39:43.888Z,97213.75
2022-11-15T04:42:10.589Z,97211.63
2022-11-15T04:44:36.607Z,97206.94
2022-11-15T04:47:03.230Z,97214.34
2022-11-15T04:49:32.313Z,97206.59
2022-11-15T04:51:58.513Z,97212.72
2022-11-15T04:54:24.829Z,97216.59
2022-11-15T04:56:51.164Z,97208.78
2022-11-15T04:59:17.632Z,97210.59
2022-11-15T05:01:45.270Z,97209.00
2022-11-15T05:04:21.749Z,97205.69
2022-11-15T05:06:52.121Z,97207.75
2022-11-15T05:09:18.417Z,97214.38
2022-11-15T05:11:48.006Z,97206.97
2022-11-15T05:14:14.698Z,97207.94
2022-11-15T05:16:41.489Z,97198.84
2022-11-15T05:19:09.132Z,97201.00
2022-11-15T05:21:37.264Z,97194.19
2022-11-15T05:24:07.221Z,97194.34
2022-11-15T05:26:34.776Z,97188.81
2022-11-15T05:29:03.506Z,97189.28
2022-11-15T05:31:31.735Z,97195.81
2022-11-15T05:34:00.363Z,97194.28
2022-11-15T05:36:33.203Z,97183.63
2022-11-15T05:39:00.108Z,97181.06
2022-11-15T05:41:34.335Z,97180.38
2022-11-15T05:44:02.063Z,97163.19
2022-11-15T05:46:28.277Z,97169.47
2022-11-15T05:48:56.977Z,97165.00
2022-11-15T05:51:26.462Z,97157.06
2022-11-15T05:53:54.158Z,97162.38
2022-11-15T05:56:20.639Z,97156.47
2022-11-15T05:58:53.453Z,97159.19
2022-11-15T06:01:21.838Z,97159.44
2022-11-15T06:03:48.266Z,97169.50
2022-11-15T06:06:16.513Z,97162.34
2022-11-15T06:08:42.977Z,97171.72
2022-11-15T06:11:10.340Z,97169.34
2022-11-15T06:13:37.250Z,97153.94
2022-11-15T06:16:06.704Z,97152.69
2022-11-15T06:18:36.254Z,97150.19
2022-11-15T06:21:04.167Z,97153.34
2022-11-15T06:23:31.272Z,97161.44
2022-11-15T06:25:57.852Z,97163.88
2022-11-15T06:28:24.306Z,97163.47
2022-11-15T06:30:53.298Z,97174.38
2022-11-15T06:33:22.639Z,97170.97
2022-11-15T06:35:49.953Z,97164.69
2022-11-15T06:38:16.232Z,97166.22
2022-11-15T06:40:43.165Z,97172.84
2022-11-15T06:43:10.386Z,97172.69
2022-11-15T06:45:36.952Z,97170.94
2022-11-15T06:48:06.385Z,97172.56
2022-11-15T06:50:35.537Z,97176.50
2022-11-15T06:53:06.178Z,97181.44
2022-11-15T06:55:33.200Z,97183.63
2022-11-15T06:58:00.473Z,97185.16
2022-11-15T07:00:27.597Z,97193.84
2022-11-15T07:02:54.169Z,97189.94
2022-11-15T07:05:22.959Z,97190.78
2022-11-15T07:07:59.277Z,97191.16
2022-11-15T07:10:31.419Z,97186.50
2022-11-15T07:13:00.094Z,97193.22
2022-11-15T07:15:28.860Z,97189.91
2022-11-15T07:17:55.347Z,97196.72
2022-11-15T07:20:23.256Z,97190.34
2022-11-15T07:22:49.657Z,97202.97
2022-11-15T07:25:19.084Z,97207.94
2022-11-15T07:27:45.837Z,97216.81
2022-11-15T07:30:15.565Z,97207.44
2022-11-15T07:32:42.313Z,97209.03
2022-11-15T07:35:11.388Z,97195.63
2022-11-15T07:37:39.246Z,97205.47
2022-11-15T07:40:07.836Z,97209.00
2022-11-15T07:42:50.263Z,97211.66
2022-11-15T07:45:16.634Z,97204.47
2022-11-15T07:47:44.443Z,97214.59
2022-11-15T07:50:11.523Z,97208.53
2022-11-15T07:52:37.665Z,97206.09
2022-11-15T07:55:05.291Z,97201.34
2022-11-15T07:57:31.498Z,97210.16
2022-11-15T08:00:01.000Z,97202.59
2022-11-15T08:02:30.431Z,97205.31
2022-11-15T08:04:57.450Z,97205.13
2022-11-15T08:07:24.482Z,97201.13
2022-11-15T08:09:51.071Z,97204.19
2022-11-15T08:12:18.565Z,97202.81
2022-11-15T08:14:46.197Z,97200.56
2022-11-15T08:17:15.243Z,97199.13
2022-11-15T08:19:43.009Z,97204.03
2022-11-15T08:22:09.485Z,97193.94
2022-11-15T08:24:36.111Z,97199.75
2022-11-15T08:27:02.553Z,97197.75
2022-11-15T08:29:28.816Z,97196.47
2022-11-15T08:31:54.936Z,97191.03
2022-11-15T08:34:24.533Z,97186.06
2022-11-15T08:36:50.943Z,97197.31
2022-11-15T08:39:17.559Z,97190.59
2022-11-15T08:41:43.458Z,97181.03
2022-11-15T08:44:09.822Z,97179.19
2022-11-15T08:46:36.542Z,97182.16
2022-11-15T08:49:03.030Z,97180.88
2022-11-15T08:51:32.209Z,97181.66
2022-11-15T08:53:58.738Z,97176.69
2022-11-15T08:56:26.207Z,97178.53
2022-11-15T08:58:52.637Z,97177.25
2022-11-15T09:01:22.139Z,97176.09
2022-11-15T09:03:48.966Z,97192.84
2022-11-15T09:06:16.337Z,97200.19
2022-11-15T09:08:48.262Z,97197.84
2022-11-15T09:11:15.693Z,97197.22
2022-11-15T09:13:42.446Z,97224.47
2022-11-15T09:16:09.484Z,97221.59
2022-11-15T09:18:37.531Z,97228.66
2022-11-15T09:21:04.714Z,97225.00
2022-11-15T09:23:31.107Z,97223.00
2022-11-15T09:26:03.918Z,97212.44
2022-11-15T09:28:30.632Z,97195.66
2022-11-15T09:31:00.350Z,97189.69
2022-11-15T09:33:27.089Z,97180.34
2022-11-15T09:35:53.290Z,97179.72
2022-11-15T09:38:19.920Z,97199.34
2022-11-15T09:40:46.323Z,97205.38
2022-11-15T09:43:35.632Z,97221.56
2022-11-15T09:46:13.045Z,97229.81
2022-11-15T09:49:03.741Z,97202.53
2022-11-15T09:51:30.858Z,97203.66
2022-11-15T09:56:20.644Z,97208.47
2022-11-15T09:58:40.429Z,97210.34
2022-11-15T10:00:53.903Z,97205.41
2022-11-15T10:03:16.285Z,97188.44
2022-11-15T10:05:27.085Z,97196.22
2022-11-15T10:07:44.851Z,97193.97
2022-11-15T10:09:59.234Z,97192.91
2022-11-15T10:12:07.386Z,97180.25
2022-11-15T10:14:21.425Z,97163.19
2022-11-15T10:17:03.939Z,97160.66
2022-11-15T10:19:20.041Z,97153.59
2022-11-15T10:21:46.932Z,97141.00
2022-11-15T10:23:57.079Z,97145.06
2022-11-15T10:26:23.962Z,97155.34
2022-11-15T10:28:34.249Z,97136.94
2022-11-15T10:30:47.334Z,97139.16
2022-11-15T10:32:55.097Z,97133.81
2022-11-15T10:35:03.531Z,97129.81
2022-11-15T10:37:11.937Z,97126.41
2022-11-15T10:39:20.954Z,97130.72
2022-11-15T10:41:43.916Z,97123.69
2022-11-15T10:44:18.758Z,97111.72
2022-11-15T10:46:46.099Z,97105.66
2022-11-15T10:48:55.080Z,97101.59
2022-11-15T10:51:02.972Z,97095.78
2022-11-15T10:53:19.393Z,97090.19
2022-11-15T10:55:33.508Z,97085.69
2022-11-15T10:57:42.711Z,97088.34
2022-11-15T10:59:52.756Z,97083.44
2022-11-15T11:02:03.930Z,97090.56
2022-11-15T11:04:14.180Z,97080.94
2022-11-15T11:06:22.494Z,97073.47
2022-11-15T11:08:31.328Z,97074.25
2022-11-15T11:11:03.127Z,97064.72
2022-11-15T11:13:19.431Z,97071.91
2022-11-15T11:15:33.833Z,97075.69
2022-11-15T11:18:01.033Z,97064.97
2022-11-15T11:20:21.065Z,97073.72
2022-11-15T11:23:10.949Z,97065.13
2022-11-15T11:25:32.821Z,97061.13
2022-11-15T11:27:51.344Z,97064.97
2022-11-15T11:30:07.595Z,97057.03
2022-11-15T11:32:38.236Z,97057.00
2022-11-15T11:35:02.273Z,97054.16
2022-11-15T11:37:19.854Z,97049.44
2022-11-15T11:39:35.251Z,97050.84
2022-11-15T11:41:57.461Z,97050.06
2022-11-15T11:44:22.392Z,97051.22
2022-11-15T11:46:52.553Z,97040.63
2022-11-15T11:49:07.176Z,97036.34
2022-11-15T11:51:24.229Z,97024.91
2022-11-15T11:53:42.031Z,97026.50
2022-11-15T11:55:53.801Z,97012.84
2022-11-15T11:58:09.322Z,97012.88
2022-11-15T12:00:24.461Z,97011.34
2022-11-15T12:02:37.159Z,97010.06
2022-11-15T12:04:49.357Z,97015.72
2022-11-15T12:07:07.873Z,97016.72
2022-11-15T12:09:20.785Z,97002.50
2022-11-15T12:11:34.442Z,97001.44
2022-11-15T12:13:43.788Z,97000.81
2022-11-15T12:16:02.889Z,96994.97
2022-11-15T12:18:17.410Z,96989.91
2022-11-15T12:20:28.590Z,96989.53
2022-11-15T12:22:51.388Z,96990.94
2022-11-15T12:25:07.098Z,96980.41
2022-11-15T12:27:26.335Z,96976.44
2022-11-15T12:29:43.926Z,96984.72
2022-11-15T12:31:56.747Z,96976.22
2022-11-15T12:34:07.679Z,96972.66
2022-11-15T12:36:34.494Z,96973.53
2022-11-15T12:39:01.438Z,96975.78
2022-11-15T12:41:27.575Z,96982.41
2022-11-15T12:43:44.903Z,96973.19
2022-11-15T12:45:52.854Z,96972.34
2022-11-15T12:48:32.307Z,96968.56
2022-11-15T12:50:59.215Z,96969.34
2022-11-15T12:53:32.439Z,96972.56
2022-11-15T12:55:43.289Z,96965.66
2022-11-15T12:57:52.455Z,96959.63
2022-11-15T13:00:03.377Z,96960.47
2022-11-15T13:02:22.347Z,96966.81
2022-11-15T13:04:33.065Z,96965.19
2022-11-15T13:06:46.299Z,96964.66
2022-11-15T13:08:55.627Z,96955.06
2022-11-15T13:11:41.251Z,96943.13
2022-11-15T13:13:49.478Z,96953.69
2022-11-15T13:16:02.462Z,96943.56
2022-11-15T13:18:34.153Z,96937.72
2022-11-15T13:20:42.565Z,96934.41
2022-11-15T13:22:51.950Z,96934.81
2022-11-15T13:25:00.409Z,96930.09
2022-11-15T13:27:21.999Z,96925.16
2022-11-15T13:29:31.131Z,96922.06
2022-11-15T13:31:40.961Z,96912.13
2022-11-15T13:33:49.207Z,96910.34
2022-11-15T13:36:00.244Z,96917.84
2022-11-15T13:38:10.194Z,96925.94
2022-11-15T13:40:28.510Z,96906.34
2022-11-15T13:42:43.111Z,96904.13
2022-11-15T13:45:01.208Z,96907.88
2022-11-15T13:47:11.245Z,96902.16
2022-11-15T13:49:19.071Z,96902.88
2022-11-15T13:51:33.998Z,96896.88
2022-11-15T13:53:48.018Z,96886.78
2022-11-15T13:56:04.480Z,96880.84
2022-11-15T13:58:17.850Z,96890.69
2022-11-15T14:00:38.708Z,96879.31
2022-11-15T14:02:46.735Z,96880.84
2022-11-15T14:04:56.998Z,96870.16
2022-11-15T14:07:06.347Z,96868.13
2022-11-15T14:09:35.756Z,96865.19
2022-11-15T14:11:54.031Z,96862.13
2022-11-15T14:14:19.475Z,96860.06
2022-11-15T14:16:37.868Z,96857.25
2022-11-15T14:18:49.930Z,96849.63
2022-11-15T14:21:10.377Z,96851.13
2022-11-15T14:23:27.889Z,96837.94
2022-11-15T14:25:37.030Z,96841.16
2022-11-15T14:27:46.606Z,96829.75
2022-11-15T14:29:57.716Z,96817.41
2022-11-15T14:32:18.910Z,96815.97
2022-11-15T14:34:26.671Z,96818.28
2022-11-15T14:36:34.577Z,96823.97
2022-11-15T14:38:43.914Z,96817.78
2022-11-15T14:40:53.167Z,96819.28
2022-11-15T14:43:03.483Z,96826.81
2022-11-15T14:45:19.178Z,96825.66
2022-11-15T14:47:27.349Z,96820.66
2022-11-15T14:49:36.678Z,96816.38
2022-11-15T14:51:44.784Z,96810.22
2022-11-15T14:53:53.260Z,96817.94
2022-11-15T14:56:01.120Z,96815.00
2022-11-15T14:58:11.610Z,96808.00
2022-11-15T15:00:23.795Z,96801.31
2022-11-15T15:02:32.702Z,96801.03
2022-11-15T15:04:40.522Z,96799.78
2022-11-15T15:06:49.620Z,96795.94
2022-11-15T15:08:58.663Z,96798.28
2022-11-15T15:11:12.231Z,96789.81
2022-11-15T15:13:22.910Z,96784.94
2022-11-15T15:15:38.115Z,96788.03
2022-11-15T15:17:46.487Z,96780.81
2022-11-15T15:19:54.429Z,96775.50
2022-11-15T15:22:02.325Z,96770.25
2022-11-15T15:24:12.547Z,96767.19
2022-11-15T15:26:20.415Z,96774.75
2022-11-15T15:28:33.090Z,96769.56
2022-11-15T15:30:46.488Z,96770.69
2022-11-15T15:32:55.566Z,96762.31
2022-11-15T15:35:03.369Z,96755.94
2022-11-15T15:37:12.766Z,96751.94
2022-11-15T15:39:20.803Z,96754.78
2022-11-15T15:41:29.076Z,96744.47
2022-11-15T15:43:37.459Z,96750.34
2022-11-15T15:45:48.859Z,96740.16
2022-11-15T15:47:56.941Z,96738.31
2022-11-15T15:50:05.047Z,96738.69
2022-11-15T15:52:12.889Z,96733.09
2022-11-15T15:54:20.997Z,96734.06
2022-11-15T15:56:31.646Z,96732.53
2022-11-15T15:58:39.719Z,96727.91
2022-11-15T16:00:50.263Z,96723.28
2022-11-15T16:02:58.086Z,96721.06
2022-11-15T16:05:05.898Z,96715.88
2022-11-15T16:07:21.293Z,96717.31
2022-11-15T16:09:41.455Z,96718.69
2022-11-15T16:11:50.466Z,96711.22
2022-11-15T16:13:58.331Z,96709.28
2022-11-15T16:16:16.647Z,96710.03
2022-11-15T16:18:24.491Z,96706.72
2022-11-15T16:20:38.776Z,96710.47
2022-11-15T16:22:46.638Z,96704.59
2022-11-15T16:24:54.954Z,96697.34
2022-11-15T16:27:02.929Z,96700.41
2022-11-15T16:29:12.117Z,96685.41
2022-11-15T16:31:25.042Z,96687.53
2022-11-15T16:33:33.613Z,96689.88
2022-11-15T16:35:41.971Z,96682.44
2022-11-15T16:37:51.673Z,96681.25
2022-11-15T16:40:01.131Z,96678.59
2022-11-15T16:42:11.971Z,96679.19
2022-11-15T16:44:20.085Z,96676.06
2022-11-15T16:46:31.830Z,96670.75
2022-11-15T16:48:40.276Z,96672.88
2022-11-15T16:50:48.134Z,96669.53
2022-11-15T16:52:57.845Z,96660.00
2022-11-15T16:55:06.963Z,96659.56
2022-11-15T16:57:16.678Z,96664.44
2022-11-15T16:59:24.453Z,96663.34
2022-11-15T17:01:36.500Z,96652.19
2022-11-15T17:03:46.749Z,96653.44
2022-11-15T17:05:55.291Z,96650.03
2022-11-15T17:08:03.445Z,96646.00
2022-11-15T17:10:14.415Z,96647.38
2022-11-15T17:12:22.446Z,96648.50
2022-11-15T17:14:30.426Z,96645.16
2022-11-15T17:16:42.663Z,96639.00
2022-11-15T17:18:54.420Z,96638.09
2022-11-15T17:21:07.057Z,96631.25
2022-11-15T17:23:23.749Z,96635.34
2022-11-15T17:25:35.718Z,96636.63
2022-11-15T17:27:53.837Z,96630.00
2022-11-15T17:30:02.607Z,96631.06
2022-11-15T17:32:15.111Z,96624.34
2022-11-15T17:34:23.691Z,96621.00
2022-11-15T17:36:31.889Z,96621.72
2022-11-15T17:38:39.804Z,96620.59
2022-11-15T17:40:49.043Z,96618.78
2022-11-15T17:42:57.564Z,96618.22
2022-11-15T17:45:09.925Z,96616.94
2022-11-15T17:47:22.096Z,96611.38
2022-11-15T17:49:29.933Z,96618.63
2022-11-15T17:51:38.068Z,96611.19
2022-11-15T17:53:51.669Z,96615.94
2022-11-15T17:56:04.574Z,96608.63
2022-11-15T17:58:12.538Z,96604.69
2022-11-15T18:00:21.826Z,96610.41
2022-11-15T18:02:33.391Z,96602.09
2022-11-15T18:04:41.363Z,96614.69
2022-11-15T18:06:50.769Z,96603.75
2022-11-15T18:08:59.081Z,96602.19
2022-11-15T18:11:12.352Z,96596.16
2022-11-15T18:13:20.476Z,96595.75
2022-11-15T18:15:28.303Z,96600.88
2022-11-15T18:17:38.766Z,96598.63
2022-11-15T18:19:46.712Z,96589.94
2022-11-15T18:22:01.957Z,96594.94
2022-11-15T18:24:10.648Z,96591.69
2022-11-15T18:26:26.631Z,96602.47
2022-11-15T18:28:37.374Z,96591.13
2022-11-15T18:30:45.264Z,96594.88
2022-11-15T18:32:55.734Z,96592.75
2022-11-15T18:35:04.687Z,96585.75
2022-11-15T18:37:12.616Z,96580.53
2022-11-15T18:39:20.581Z,96578.31
2022-11-15T18:41:29.555Z,96580.03
2022-11-15T18:43:38.938Z,96576.25
2022-11-15T18:45:48.224Z,96581.50
2022-11-15T18:47:59.434Z,96584.00
2022-11-15T18:50:07.951Z,96586.28
2022-11-15T18:52:17.219Z,96584.19
2022-11-15T18:54:30.698Z,96588.19
2022-11-15T18:56:39.667Z,96588.19
2022-11-15T18:58:50.460Z,96581.19
2022-11-15T19:01:03.860Z,96583.16
2022-11-15T19:03:14.466Z,96582.56
2022-11-15T19:05:23.392Z,96586.19
2022-11-15T19:07:31.363Z,96581.19
2022-11-15T19:09:39.234Z,96588.19
2022-11-15T19:11:48.875Z,96582.75
2022-11-15T19:13:58.953Z,96578.69
2022-11-15T19:16:08.269Z,96575.56
2022-11-15T19:18:19.122Z,96574.31
2022-11-15T19:20:27.003Z,96571.66
2022-11-15T19:22:34.920Z,96569.50
2022-11-15T19:24:42.848Z,96566.75
2022-11-15T19:26:50.823Z,96564.31
2022-11-15T19:29:00.894Z,96556.03
2022-11-15T19:31:09.653Z,96553.69
2022-11-15T19:33:26.518Z,96553.09
2022-11-15T19:35:35.672Z,96551.22
2022-11-15T19:37:43.929Z,96540.13
2022-11-15T19:39:51.899Z,96537.50
2022-11-15T19:41:59.757Z,96533.31
2022-11-15T19:44:08.885Z,96527.97
2022-11-15T19:46:18.198Z,96538.63
2022-11-15T19:48:32.856Z,96523.75
2022-11-15T19:50:40.873Z,96526.63
2022-11-15T19:52:55.610Z,96526.09
2022-11-15T19:55:05.283Z,96519.34
2022-11-15T19:57:14.440Z,96520.22
2022-11-15T19:59:23.159Z,96514.78
2022-11-15T20:01:32.596Z,96509.59
2022-11-15T20:03:44.578Z,96516.31
2022-11-15T20:05:55.627Z,96510.16
2022-11-15T20:08:03.901Z,96495.41
2022-11-15T20:10:15.689Z,96492.59
2022-11-15T20:12:28.914Z,96491.38
2022-11-15T20:14:37.986Z,96498.97
2022-11-15T20:16:52.940Z,96496.00
2022-11-15T20:19:08.309Z,96497.44
2022-11-15T20:21:16.810Z,96494.63
2022-11-15T20:23:29.052Z,96485.41
2022-11-15T20:25:41.848Z,96480.44
2022-11-15T20:27:52.703Z,96480.84
2022-11-15T20:30:00.842Z,96473.00
2022-11-15T20:32:12.205Z,96467.81
2022-11-15T20:34:23.249Z,96470.94
2022-11-15T20:36:31.503Z,96472.75
2022-11-15T20:38:39.744Z,96472.06
2022-11-15T20:40:56.003Z,96469.56
2022-11-15T20:43:07.501Z,96469.25
2022-11-15T20:45:17.348Z,96463.22
2022-11-15T20:47:30.100Z,96460.44
2022-11-15T20:49:40.765Z,96453.28
2022-11-15T20:51:48.657Z,96468.31
2022-11-15T20:53:56.478Z,96454.81
2022-11-15T20:56:10.412Z,96457.59
2022-11-15T20:58:19.519Z,96450.75
2022-11-15T21:00:27.534Z,96456.22
2022-11-15T21:02:35.594Z,96454.25
2022-11-15T21:04:46.225Z,96451.72
2022-11-15T21:06:54.118Z,96444.00
2022-11-15T21:09:14.358Z,96442.59
2022-11-15T21:11:35.086Z,96444.81
2022-11-15T21:13:44.273Z,96445.19
2022-11-15T21:15:52.094Z,96442.38
2022-11-15T21:17:59.987Z,96432.72
2022-11-15T21:20:15.912Z,96432.88
2022-11-15T21:22:38.449Z,96436.38
2022-11-15T21:24:47.296Z,96440.00
2022-11-15T21:26:55.299Z,96434.69
2022-11-15T21:29:03.185Z,96424.06
2022-11-15T21:31:12.106Z,96410.56
2022-11-15T21:33:21.588Z,96414.47
2022-11-15T21:35:33.332Z,96413.09
2022-11-15T21:37:42.151Z,96407.31
2022-11-15T21:39:50.078Z,96414.38
2022-11-15T21:41:59.194Z,96410.19
2022-11-15T21:44:07.897Z,96410.19
2022-11-15T21:46:16.101Z,96401.47
2022-11-15T21:48:23.927Z,96407.47
2022-11-15T21:50:34.416Z,96407.47
2022-11-15T21:52:42.396Z,96399.63
2022-11-15T21:54:50.249Z,96402.84
2022-11-15T21:56:58.753Z,96398.78
2022-11-15T21:59:06.665Z,96397.97
2022-11-15T22:01:27.081Z,96395.84
2022-11-15T22:03:34.987Z,96393.75
2022-11-15T22:05:47.235Z,96385.38
2022-11-15T22:07:55.154Z,96387.66
2022-11-15T22:10:03.200Z,96381.63
2022-11-15T22:12:11.132Z,96385.94
2022-11-15T22:14:19.052Z,96381.78
2022-11-15T22:16:26.912Z,96378.44
2022-11-15T22:18:35.488Z,96386.28
2022-11-15T22:20:56.523Z,96380.97
2022-11-15T22:23:04.696Z,96383.28
2022-11-15T22:25:12.629Z,96380.19
2022-11-15T22:27:20.658Z,96374.03
2022-11-15T22:29:29.214Z,96377.09
2022-11-15T22:31:37.145Z,96390.38
2022-11-15T22:33:45.585Z,96383.91
2022-11-15T22:35:56.628Z,96383.75
2022-11-15T22:38:04.686Z,96384.38
2022-11-15T22:40:13.612Z,96387.16
2022-11-15T22:42:23.949Z,96384.09
2022-11-15T22:44:32.259Z,96384.81
2022-11-15T22:46:40.312Z,96387.38
2022-11-15T22:48:48.285Z,96389.91
2022-11-15T22:50:59.329Z,96376.31
2022-11-15T22:53:07.298Z,96380.34
2022-11-15T22:55:15.943Z,96375.31
2022-11-15T22:57:25.172Z,96370.25
2022-11-15T22:59:33.172Z,96369.38
2022-11-15T23:01:41.127Z,96373.41
2022-11-15T23:03:49.167Z,96367.50
2022-11-15T23:06:04.579Z,96372.16
2022-11-15T23:08:13.021Z,96373.94
2022-11-15T23:10:33.694Z,96374.03
2022-11-15T23:12:53.983Z,96367.91
2022-11-15T23:15:03.058Z,96370.00
2022-11-15T23:17:09.739Z,96361.13
2022-11-15T23:19:17.845Z,96356.91
2022-11-15T23:21:42.523Z,96352.97
2022-11-15T23:23:52.003Z,96345.13
2022-11-15T23:26:03.411Z,96347.34
2022-11-15T23:28:11.515Z,96340.72
2022-11-15T23:30:32.786Z,96328.53
2022-11-15T23:32:53.129Z,96330.88
2022-11-15T23:35:01.192Z,96321.50
2022-11-15T23:37:13.324Z,96314.66
2022-11-15T23:39:23.120Z,96313.53
2022-11-15T23:41:31.083Z,96309.59
2022-11-15T23:43:39.233Z,96318.84
2022-11-15T23:45:47.457Z,96315.47
2022-11-15T23:48:00.995Z,96315.47
2022-11-15T23:50:10.676Z,96301.06
2022-11-15T23:52:23.220Z,96304.28
2022-11-15T23:54:31.734Z,96307.06
2022-11-15T23:56:39.900Z,96308.75
2022-11-15T23:58:48.949Z,96305.63
